sensor_id;sensor_type;location;lat;lon;timestamp;P1;durP1;ratioP1;P2;durP2;ratioP2
4895;SDS011;2463;49.948;8.472;2022-12-28T00:03:49;104.55;;;10.60;;
4895;SDS011;2463;49.948;8.472;2022-12-28T00:06:17;104.80;;;10.88;;
4895;SDS011;2463;49.948;8.472;2022-12-28T00:08:47;105.70;;;13.15;;
4895;SDS011;2463;49.948;8.472;2022-12-28T00:11:14;104.82;;;11.02;;
4895;SDS011;2463;49.948;8.472;2022-12-28T00:13:55;222.38;;;71.82;;
4895;SDS011;2463;49.948;8.472;2022-12-28T00:16:24;127.50;;;24.70;;
4895;SDS011;2463;49.948;8.472;2022-12-28T00:19:04;128.95;;;25.23;;
4895;SDS011;2463;49.948;8.472;2022-12-28T00:21:32;124.22;;;21.95;;
4895;SDS011;2463;49.948;8.472;2022-12-28T00:23:59;124.13;;;20.27;;
4895;SDS011;2463;49.948;8.472;2022-12-28T00:26:27;128.77;;;24.95;;
4895;SDS011;2463;49.948;8.472;2022-12-28T00:28:56;121.20;;;22.83;;
4895;SDS011;2463;49.948;8.472;2022-12-28T00:31:30;125.40;;;24.42;;
4895;SDS011;2463;49.948;8.472;2022-12-28T00:33:57;116.47;;;16.17;;
4895;SDS011;2463;49.948;8.472;2022-12-28T00:36:24;112.03;;;17.02;;
4895;SDS011;2463;49.948;8.472;2022-12-28T00:39:11;119.07;;;20.42;;
4895;SDS011;2463;49.948;8.472;2022-12-28T00:41:37;110.43;;;15.73;;
4895;SDS011;2463;49.948;8.472;2022-12-28T00:44:04;100.70;;;10.10;;
4895;SDS011;2463;49.948;8.472;2022-12-28T00:46:31;120.43;;;20.73;;
4895;SDS011;2463;49.948;8.472;2022-12-28T00:48:57;104.85;;;11.75;;
4895;SDS011;2463;49.948;8.472;2022-12-28T00:51:24;107.57;;;12.93;;
4895;SDS011;2463;49.948;8.472;2022-12-28T00:53:51;106.20;;;11.30;;
4895;SDS011;2463;49.948;8.472;2022-12-28T00:56:19;107.57;;;13.88;;
4895;SDS011;2463;49.948;8.472;2022-12-28T00:58:47;114.25;;;16.73;;
4895;SDS011;2463;49.948;8.472;2022-12-28T01:01:15;110.32;;;15.90;;
4895;SDS011;2463;49.948;8.472;2022-12-28T01:03:44;109.35;;;12.60;;
4895;SDS011;2463;49.948;8.472;2022-12-28T01:06:11;105.85;;;11.50;;
4895;SDS011;2463;49.948;8.472;2022-12-28T01:08:39;100.43;;;9.90;;
4895;SDS011;2463;49.948;8.472;2022-12-28T01:11:07;104.60;;;10.40;;
4895;SDS011;2463;49.948;8.472;2022-12-28T01:13:34;100.53;;;10.52;;
4895;SDS011;2463;49.948;8.472;2022-12-28T01:16:08;107.50;;;10.05;;
4895;SDS011;2463;49.948;8.472;2022-12-28T01:18:36;102.90;;;11.90;;
4895;SDS011;2463;49.948;8.472;2022-12-28T01:21:07;103.15;;;11.13;;
4895;SDS011;2463;49.948;8.472;2022-12-28T01:23:38;105.25;;;12.60;;
4895;SDS011;2463;49.948;8.472;2022-12-28T01:26:05;100.35;;;10.25;;
4895;SDS011;2463;49.948;8.472;2022-12-28T01:28:32;107.15;;;11.35;;
4895;SDS011;2463;49.948;8.472;2022-12-28T01:31:06;102.65;;;10.95;;
4895;SDS011;2463;49.948;8.472;2022-12-28T01:33:35;104.65;;;10.68;;
4895;SDS011;2463;49.948;8.472;2022-12-28T01:36:09;100.40;;;10.55;;
4895;SDS011;2463;49.948;8.472;2022-12-28T01:38:42;111.60;;;13.48;;
4895;SDS011;2463;49.948;8.472;2022-12-28T01:41:10;106.38;;;12.43;;
4895;SDS011;2463;49.948;8.472;2022-12-28T01:43:44;110.15;;;10.25;;
4895;SDS011;2463;49.948;8.472;2022-12-28T01:49:21;106.40;;;10.68;;
4895;SDS011;2463;49.948;8.472;2022-12-28T01:51:53;106.80;;;10.98;;
4895;SDS011;2463;49.948;8.472;2022-12-28T01:54:47;101.53;;;10.15;;
4895;SDS011;2463;49.948;8.472;2022-12-28T01:57:17;103.10;;;10.63;;
4895;SDS011;2463;49.948;8.472;2022-12-28T01:59:51;103.07;;;10.25;;
4895;SDS011;2463;49.948;8.472;2022-12-28T02:02:21;105.00;;;11.00;;
4895;SDS011;2463;49.948;8.472;2022-12-28T02:04:48;99.88;;;9.68;;
4895;SDS011;2463;49.948;8.472;2022-12-28T02:07:18;106.68;;;11.65;;
4895;SDS011;2463;49.948;8.472;2022-12-28T02:09:59;100.32;;;9.70;;
4895;SDS011;2463;49.948;8.472;2022-12-28T02:12:46;104.50;;;9.73;;
4895;SDS011;2463;49.948;8.472;2022-12-28T02:15:12;106.90;;;10.70;;
4895;SDS011;2463;49.948;8.472;2022-12-28T02:17:47;102.78;;;10.38;;
4895;SDS011;2463;49.948;8.472;2022-12-28T02:20:14;106.15;;;10.77;;
4895;SDS011;2463;49.948;8.472;2022-12-28T02:28:24;103.20;;;10.70;;
4895;SDS011;2463;49.948;8.472;2022-12-28T02:31:16;103.80;;;11.07;;
4895;SDS011;2463;49.948;8.472;2022-12-28T02:34:04;101.82;;;10.73;;
4895;SDS011;2463;49.948;8.472;2022-12-28T02:36:38;101.93;;;10.63;;
4895;SDS011;2463;49.948;8.472;2022-12-28T02:39:12;106.07;;;11.10;;
4895;SDS011;2463;49.948;8.472;2022-12-28T02:41:44;101.45;;;10.30;;
4895;SDS011;2463;49.948;8.472;2022-12-28T02:44:12;100.57;;;10.90;;
4895;SDS011;2463;49.948;8.472;2022-12-28T02:46:59;103.05;;;11.25;;
4895;SDS011;2463;49.948;8.472;2022-12-28T02:49:45;111.95;;;10.60;;
4895;SDS011;2463;49.948;8.472;2022-12-28T03:00:24;102.00;;;10.93;;
4895;SDS011;2463;49.948;8.472;2022-12-28T03:09:26;103.72;;;10.00;;
4895;SDS011;2463;49.948;8.472;2022-12-28T03:12:22;101.28;;;9.98;;
4895;SDS011;2463;49.948;8.472;2022-12-28T03:14:58;103.55;;;10.38;;
4895;SDS011;2463;49.948;8.472;2022-12-28T03:17:31;102.68;;;10.23;;
4895;SDS011;2463;49.948;8.472;2022-12-28T03:20:21;100.05;;;11.25;;
4895;SDS011;2463;49.948;8.472;2022-12-28T03:23:10;104.15;;;9.50;;
4895;SDS011;2463;49.948;8.472;2022-12-28T03:25:59;104.72;;;9.75;;
4895;SDS011;2463;49.948;8.472;2022-12-28T03:28:46;101.35;;;10.40;;
4895;SDS011;2463;49.948;8.472;2022-12-28T03:31:33;99.18;;;9.00;;
4895;SDS011;2463;49.948;8.472;2022-12-28T03:34:01;102.65;;;11.10;;
4895;SDS011;2463;49.948;8.472;2022-12-28T03:36:38;100.38;;;10.50;;
4895;SDS011;2463;49.948;8.472;2022-12-28T03:41:52;100.75;;;10.00;;
4895;SDS011;2463;49.948;8.472;2022-12-28T03:44:41;101.88;;;10.02;;
4895;SDS011;2463;49.948;8.472;2022-12-28T03:47:13;100.60;;;9.52;;
4895;SDS011;2463;49.948;8.472;2022-12-28T03:49:42;112.15;;;10.65;;
4895;SDS011;2463;49.948;8.472;2022-12-28T03:52:08;102.75;;;9.68;;
4895;SDS011;2463;49.948;8.472;2022-12-28T03:54:36;103.75;;;10.43;;
4895;SDS011;2463;49.948;8.472;2022-12-28T03:57:05;107.57;;;9.52;;
4895;SDS011;2463;49.948;8.472;2022-12-28T03:59:32;100.88;;;9.40;;
4895;SDS011;2463;49.948;8.472;2022-12-28T04:01:59;101.25;;;10.20;;
4895;SDS011;2463;49.948;8.472;2022-12-28T04:04:25;100.70;;;9.75;;
4895;SDS011;2463;49.948;8.472;2022-12-28T04:06:52;103.25;;;9.80;;
4895;SDS011;2463;49.948;8.472;2022-12-28T04:09:19;101.97;;;10.10;;
4895;SDS011;2463;49.948;8.472;2022-12-28T04:11:45;103.07;;;11.43;;
4895;SDS011;2463;49.948;8.472;2022-12-28T04:14:12;100.55;;;9.43;;
4895;SDS011;2463;49.948;8.472;2022-12-28T04:16:39;103.40;;;9.40;;
4895;SDS011;2463;49.948;8.472;2022-12-28T04:19:05;104.25;;;10.05;;
4895;SDS011;2463;49.948;8.472;2022-12-28T04:21:32;102.22;;;10.10;;
4895;SDS011;2463;49.948;8.472;2022-12-28T04:23:59;103.53;;;9.60;;
4895;SDS011;2463;49.948;8.472;2022-12-28T04:26:25;100.90;;;9.77;;
4895;SDS011;2463;49.948;8.472;2022-12-28T04:28:52;100.68;;;10.32;;
4895;SDS011;2463;49.948;8.472;2022-12-28T04:31:19;99.63;;;9.35;;
4895;SDS011;2463;49.948;8.472;2022-12-28T04:33:45;100.35;;;8.73;;
4895;SDS011;2463;49.948;8.472;2022-12-28T04:36:14;105.00;;;10.75;;
4895;SDS011;2463;49.948;8.472;2022-12-28T04:38:41;101.68;;;9.90;;
4895;SDS011;2463;49.948;8.472;2022-12-28T04:41:09;100.53;;;11.50;;
4895;SDS011;2463;49.948;8.472;2022-12-28T04:43:36;101.35;;;10.55;;
4895;SDS011;2463;49.948;8.472;2022-12-28T04:46:06;101.30;;;10.50;;
4895;SDS011;2463;49.948;8.472;2022-12-28T04:48:36;100.10;;;10.13;;
4895;SDS011;2463;49.948;8.472;2022-12-28T04:51:10;103.45;;;9.50;;
4895;SDS011;2463;49.948;8.472;2022-12-28T04:53:37;101.50;;;9.82;;
4895;SDS011;2463;49.948;8.472;2022-12-28T04:56:05;100.47;;;9.75;;
4895;SDS011;2463;49.948;8.472;2022-12-28T04:58:32;99.13;;;9.52;;
4895;SDS011;2463;49.948;8.472;2022-12-28T05:01:10;105.68;;;10.55;;
4895;SDS011;2463;49.948;8.472;2022-12-28T05:03:38;101.43;;;9.40;;
4895;SDS011;2463;49.948;8.472;2022-12-28T05:06:07;99.50;;;9.45;;
4895;SDS011;2463;49.948;8.472;2022-12-28T05:08:37;100.50;;;9.55;;
4895;SDS011;2463;49.948;8.472;2022-12-28T05:11:06;102.13;;;10.00;;
4895;SDS011;2463;49.948;8.472;2022-12-28T05:13:34;100.53;;;10.63;;
4895;SDS011;2463;49.948;8.472;2022-12-28T05:16:02;99.00;;;9.65;;
4895;SDS011;2463;49.948;8.472;2022-12-28T05:18:33;101.40;;;10.02;;
4895;SDS011;2463;49.948;8.472;2022-12-28T05:21:01;101.43;;;9.82;;
4895;SDS011;2463;49.948;8.472;2022-12-28T05:23:30;104.15;;;10.15;;
4895;SDS011;2463;49.948;8.472;2022-12-28T05:25:58;100.43;;;9.50;;
4895;SDS011;2463;49.948;8.472;2022-12-28T05:28:25;102.22;;;9.65;;
4895;SDS011;2463;49.948;8.472;2022-12-28T05:30:57;103.15;;;9.77;;
4895;SDS011;2463;49.948;8.472;2022-12-28T05:33:29;97.93;;;8.30;;
4895;SDS011;2463;49.948;8.472;2022-12-28T05:36:07;99.00;;;8.23;;
4895;SDS011;2463;49.948;8.472;2022-12-28T05:38:36;98.90;;;8.25;;
4895;SDS011;2463;49.948;8.472;2022-12-28T05:41:04;111.00;;;9.07;;
4895;SDS011;2463;49.948;8.472;2022-12-28T05:43:32;98.57;;;8.77;;
4895;SDS011;2463;49.948;8.472;2022-12-28T05:46:00;96.47;;;8.20;;
4895;SDS011;2463;49.948;8.472;2022-12-28T05:48:32;107.15;;;10.40;;
4895;SDS011;2463;49.948;8.472;2022-12-28T05:51:01;97.88;;;7.82;;
4895;SDS011;2463;49.948;8.472;2022-12-28T05:53:36;102.00;;;8.40;;
4895;SDS011;2463;49.948;8.472;2022-12-28T05:56:04;95.53;;;8.13;;
4895;SDS011;2463;49.948;8.472;2022-12-28T05:58:40;96.35;;;8.07;;
4895;SDS011;2463;49.948;8.472;2022-12-28T06:03:36;95.70;;;7.95;;
4895;SDS011;2463;49.948;8.472;2022-12-28T06:06:08;103.63;;;8.23;;
4895;SDS011;2463;49.948;8.472;2022-12-28T06:08:39;97.20;;;7.72;;
4895;SDS011;2463;49.948;8.472;2022-12-28T06:11:08;96.35;;;7.28;;
4895;SDS011;2463;49.948;8.472;2022-12-28T06:13:36;100.30;;;8.20;;
4895;SDS011;2463;49.948;8.472;2022-12-28T06:16:06;96.63;;;7.68;;
4895;SDS011;2463;49.948;8.472;2022-12-28T06:18:35;97.07;;;7.80;;
4895;SDS011;2463;49.948;8.472;2022-12-28T06:21:06;95.47;;;7.88;;
4895;SDS011;2463;49.948;8.472;2022-12-28T06:23:35;101.45;;;7.95;;
4895;SDS011;2463;49.948;8.472;2022-12-28T06:26:03;96.03;;;7.47;;
4895;SDS011;2463;49.948;8.472;2022-12-28T06:28:31;96.10;;;7.20;;
4895;SDS011;2463;49.948;8.472;2022-12-28T06:31:03;99.75;;;7.88;;
4895;SDS011;2463;49.948;8.472;2022-12-28T06:33:31;96.38;;;7.57;;
4895;SDS011;2463;49.948;8.472;2022-12-28T06:35:58;96.68;;;7.22;;
4895;SDS011;2463;49.948;8.472;2022-12-28T06:38:26;94.57;;;7.13;;
4895;SDS011;2463;49.948;8.472;2022-12-28T06:40:54;98.40;;;7.65;;
4895;SDS011;2463;49.948;8.472;2022-12-28T06:43:39;97.68;;;7.60;;
4895;SDS011;2463;49.948;8.472;2022-12-28T06:46:07;99.90;;;7.80;;
4895;SDS011;2463;49.948;8.472;2022-12-28T06:48:34;95.03;;;7.10;;
4895;SDS011;2463;49.948;8.472;2022-12-28T06:51:12;97.75;;;8.18;;
4895;SDS011;2463;49.948;8.472;2022-12-28T06:53:40;95.30;;;7.80;;
4895;SDS011;2463;49.948;8.472;2022-12-28T06:56:15;99.88;;;8.05;;
4895;SDS011;2463;49.948;8.472;2022-12-28T06:58:47;97.68;;;7.57;;
4895;SDS011;2463;49.948;8.472;2022-12-28T07:01:19;97.50;;;7.32;;
4895;SDS011;2463;49.948;8.472;2022-12-28T07:03:48;97.03;;;7.47;;
4895;SDS011;2463;49.948;8.472;2022-12-28T07:06:17;96.57;;;7.10;;
4895;SDS011;2463;49.948;8.472;2022-12-28T07:08:45;99.85;;;7.05;;
4895;SDS011;2463;49.948;8.472;2022-12-28T07:11:15;97.40;;;7.72;;
4895;SDS011;2463;49.948;8.472;2022-12-28T07:13:44;94.47;;;6.90;;
4895;SDS011;2463;49.948;8.472;2022-12-28T07:16:12;98.32;;;7.20;;
4895;SDS011;2463;49.948;8.472;2022-12-28T07:18:40;95.70;;;7.88;;
4895;SDS011;2463;49.948;8.472;2022-12-28T07:21:11;94.97;;;7.20;;
4895;SDS011;2463;49.948;8.472;2022-12-28T07:23:39;95.43;;;7.15;;
4895;SDS011;2463;49.948;8.472;2022-12-28T07:26:10;95.53;;;6.40;;
4895;SDS011;2463;49.948;8.472;2022-12-28T07:28:39;96.88;;;7.38;;
4895;SDS011;2463;49.948;8.472;2022-12-28T07:31:08;97.80;;;7.75;;
4895;SDS011;2463;49.948;8.472;2022-12-28T07:33:37;94.47;;;7.38;;
4895;SDS011;2463;49.948;8.472;2022-12-28T07:36:04;98.60;;;8.13;;
4895;SDS011;2463;49.948;8.472;2022-12-28T07:38:33;96.05;;;7.20;;
4895;SDS011;2463;49.948;8.472;2022-12-28T07:41:01;105.20;;;7.47;;
4895;SDS011;2463;49.948;8.472;2022-12-28T07:43:28;100.32;;;7.60;;
4895;SDS011;2463;49.948;8.472;2022-12-28T07:46:02;99.25;;;7.93;;
4895;SDS011;2463;49.948;8.472;2022-12-28T07:48:31;96.28;;;7.57;;
4895;SDS011;2463;49.948;8.472;2022-12-28T07:51:06;94.43;;;6.80;;
4895;SDS011;2463;49.948;8.472;2022-12-28T07:53:36;96.75;;;7.13;;
4895;SDS011;2463;49.948;8.472;2022-12-28T07:56:04;94.78;;;7.10;;
4895;SDS011;2463;49.948;8.472;2022-12-28T07:58:31;97.82;;;7.82;;
4895;SDS011;2463;49.948;8.472;2022-12-28T08:01:04;96.22;;;7.45;;
4895;SDS011;2463;49.948;8.472;2022-12-28T08:03:33;94.55;;;6.85;;
4895;SDS011;2463;49.948;8.472;2022-12-28T08:06:04;96.88;;;7.25;;
4895;SDS011;2463;49.948;8.472;2022-12-28T08:08:35;98.82;;;7.70;;
4895;SDS011;2463;49.948;8.472;2022-12-28T08:11:04;94.47;;;6.57;;
4895;SDS011;2463;49.948;8.472;2022-12-28T08:13:33;95.10;;;7.20;;
4895;SDS011;2463;49.948;8.472;2022-12-28T08:16:01;96.10;;;6.50;;
4895;SDS011;2463;49.948;8.472;2022-12-28T08:18:28;96.05;;;7.45;;
4895;SDS011;2463;49.948;8.472;2022-12-28T08:20:58;96.75;;;6.85;;
4895;SDS011;2463;49.948;8.472;2022-12-28T08:23:27;94.43;;;6.50;;
4895;SDS011;2463;49.948;8.472;2022-12-28T08:25:55;96.03;;;6.90;;
4895;SDS011;2463;49.948;8.472;2022-12-28T08:28:21;93.97;;;6.50;;
4895;SDS011;2463;49.948;8.472;2022-12-28T08:30:48;96.90;;;6.75;;
4895;SDS011;2463;49.948;8.472;2022-12-28T08:33:15;94.93;;;6.65;;
4895;SDS011;2463;49.948;8.472;2022-12-28T08:35:41;94.97;;;7.05;;
4895;SDS011;2463;49.948;8.472;2022-12-28T08:38:08;94.63;;;6.70;;
4895;SDS011;2463;49.948;8.472;2022-12-28T08:40:35;93.47;;;6.53;;
4895;SDS011;2463;49.948;8.472;2022-12-28T08:43:01;96.57;;;6.70;;
4895;SDS011;2463;49.948;8.472;2022-12-28T08:45:28;97.05;;;6.72;;
4895;SDS011;2463;49.948;8.472;2022-12-28T08:47:55;95.32;;;6.88;;
4895;SDS011;2463;49.948;8.472;2022-12-28T08:50:21;94.03;;;6.78;;
4895;SDS011;2463;49.948;8.472;2022-12-28T08:52:56;95.30;;;6.80;;
4895;SDS011;2463;49.948;8.472;2022-12-28T08:55:23;93.80;;;6.45;;
4895;SDS011;2463;49.948;8.472;2022-12-28T08:57:49;95.97;;;6.40;;
4895;SDS011;2463;49.948;8.472;2022-12-28T09:00:16;94.63;;;6.60;;
4895;SDS011;2463;49.948;8.472;2022-12-28T09:02:43;93.88;;;6.75;;
4895;SDS011;2463;49.948;8.472;2022-12-28T09:05:10;91.75;;;5.78;;
4895;SDS011;2463;49.948;8.472;2022-12-28T09:07:36;100.72;;;7.07;;
4895;SDS011;2463;49.948;8.472;2022-12-28T09:10:03;94.35;;;6.63;;
4895;SDS011;2463;49.948;8.472;2022-12-28T09:12:30;93.13;;;6.25;;
4895;SDS011;2463;49.948;8.472;2022-12-28T09:14:57;98.70;;;6.47;;
4895;SDS011;2463;49.948;8.472;2022-12-28T09:17:23;102.25;;;6.60;;
4895;SDS011;2463;49.948;8.472;2022-12-28T09:19:50;94.07;;;6.97;;
4895;SDS011;2463;49.948;8.472;2022-12-28T09:22:17;91.78;;;5.72;;
4895;SDS011;2463;49.948;8.472;2022-12-28T09:24:43;93.43;;;5.53;;
4895;SDS011;2463;49.948;8.472;2022-12-28T09:27:10;94.75;;;6.25;;
4895;SDS011;2463;49.948;8.472;2022-12-28T09:29:37;92.78;;;6.00;;
4895;SDS011;2463;49.948;8.472;2022-12-28T09:32:03;94.07;;;6.40;;
4895;SDS011;2463;49.948;8.472;2022-12-28T09:34:30;93.35;;;6.53;;
4895;SDS011;2463;49.948;8.472;2022-12-28T09:37:02;95.78;;;6.82;;
4895;SDS011;2463;49.948;8.472;2022-12-28T09:39:29;94.38;;;5.90;;
4895;SDS011;2463;49.948;8.472;2022-12-28T09:41:56;93.43;;;6.25;;
4895;SDS011;2463;49.948;8.472;2022-12-28T09:44:44;94.40;;;6.18;;
4895;SDS011;2463;49.948;8.472;2022-12-28T09:55:24;91.38;;;5.47;;
4895;SDS011;2463;49.948;8.472;2022-12-28T09:57:53;92.72;;;5.55;;
4895;SDS011;2463;49.948;8.472;2022-12-28T10:00:23;92.85;;;5.60;;
4895;SDS011;2463;49.948;8.472;2022-12-28T10:02:58;93.78;;;5.70;;
4895;SDS011;2463;49.948;8.472;2022-12-28T10:05:28;91.90;;;5.47;;
4895;SDS011;2463;49.948;8.472;2022-12-28T10:07:56;92.80;;;5.63;;
4895;SDS011;2463;49.948;8.472;2022-12-28T10:10:24;94.32;;;6.00;;
4895;SDS011;2463;49.948;8.472;2022-12-28T10:12:52;94.80;;;5.90;;
4895;SDS011;2463;49.948;8.472;2022-12-28T10:15:21;92.88;;;6.05;;
4895;SDS011;2463;49.948;8.472;2022-12-28T10:17:52;94.25;;;5.90;;
4895;SDS011;2463;49.948;8.472;2022-12-28T10:20:19;94.68;;;6.22;;
4895;SDS011;2463;49.948;8.472;2022-12-28T10:22:49;93.30;;;6.10;;
4895;SDS011;2463;49.948;8.472;2022-12-28T10:25:19;93.32;;;6.38;;
4895;SDS011;2463;49.948;8.472;2022-12-28T10:27:47;92.53;;;5.95;;
4895;SDS011;2463;49.948;8.472;2022-12-28T10:32:50;92.32;;;5.82;;
4895;SDS011;2463;49.948;8.472;2022-12-28T10:35:21;92.50;;;5.75;;
4895;SDS011;2463;49.948;8.472;2022-12-28T10:38:02;97.22;;;7.22;;
4895;SDS011;2463;49.948;8.472;2022-12-28T10:40:44;92.50;;;5.80;;
4895;SDS011;2463;49.948;8.472;2022-12-28T10:43:17;93.50;;;5.80;;
4895;SDS011;2463;49.948;8.472;2022-12-28T10:45:45;93.43;;;6.32;;
4895;SDS011;2463;49.948;8.472;2022-12-28T10:48:17;95.57;;;6.13;;
4895;SDS011;2463;49.948;8.472;2022-12-28T10:55:44;94.07;;;5.85;;
4895;SDS011;2463;49.948;8.472;2022-12-28T11:01:01;92.93;;;5.90;;
4895;SDS011;2463;49.948;8.472;2022-12-28T11:03:39;94.90;;;5.60;;
4895;SDS011;2463;49.948;8.472;2022-12-28T11:06:22;94.22;;;5.45;;
4895;SDS011;2463;49.948;8.472;2022-12-28T11:11:40;97.10;;;6.15;;
4895;SDS011;2463;49.948;8.472;2022-12-28T11:19:47;95.53;;;8.10;;
4895;SDS011;2463;49.948;8.472;2022-12-28T11:22:19;91.82;;;6.00;;
4895;SDS011;2463;49.948;8.472;2022-12-28T11:24:49;97.60;;;6.57;;
4895;SDS011;2463;49.948;8.472;2022-12-28T11:27:17;95.80;;;6.30;;
4895;SDS011;2463;49.948;8.472;2022-12-28T11:29:47;94.20;;;5.60;;
4895;SDS011;2463;49.948;8.472;2022-12-28T11:32:22;92.47;;;5.80;;
4895;SDS011;2463;49.948;8.472;2022-12-28T11:34:51;97.45;;;5.90;;
4895;SDS011;2463;49.948;8.472;2022-12-28T11:37:19;92.45;;;5.90;;
4895;SDS011;2463;49.948;8.472;2022-12-28T11:39:47;91.75;;;5.80;;
4895;SDS011;2463;49.948;8.472;2022-12-28T11:45:12;96.93;;;6.20;;
4895;SDS011;2463;49.948;8.472;2022-12-28T11:47:41;94.22;;;5.60;;
4895;SDS011;2463;49.948;8.472;2022-12-28T11:53:02;96.78;;;5.65;;
4895;SDS011;2463;49.948;8.472;2022-12-28T11:59:18;95.65;;;5.80;;
4895;SDS011;2463;49.948;8.472;2022-12-28T12:11:52;92.50;;;5.22;;
4895;SDS011;2463;49.948;8.472;2022-12-28T12:14:21;91.18;;;5.22;;
4895;SDS011;2463;49.948;8.472;2022-12-28T12:17:01;94.10;;;6.30;;
4895;SDS011;2463;49.948;8.472;2022-12-28T12:19:34;91.43;;;5.30;;
4895;SDS011;2463;49.948;8.472;2022-12-28T12:22:18;91.43;;;5.50;;
4895;SDS011;2463;49.948;8.472;2022-12-28T12:24:56;94.03;;;5.60;;
4895;SDS011;2463;49.948;8.472;2022-12-28T12:29:59;93.20;;;5.40;;
4895;SDS011;2463;49.948;8.472;2022-12-28T12:32:33;97.15;;;5.40;;
4895;SDS011;2463;49.948;8.472;2022-12-28T12:35:15;90.50;;;5.00;;
4895;SDS011;2463;49.948;8.472;2022-12-28T12:37:44;92.80;;;5.28;;
4895;SDS011;2463;49.948;8.472;2022-12-28T12:40:44;94.72;;;5.25;;
4895;SDS011;2463;49.948;8.472;2022-12-28T12:46:18;91.03;;;4.90;;
4895;SDS011;2463;49.948;8.472;2022-12-28T12:49:14;92.53;;;5.60;;
4895;SDS011;2463;49.948;8.472;2022-12-28T12:58:00;90.72;;;5.30;;
4895;SDS011;2463;49.948;8.472;2022-12-28T13:00:43;91.72;;;5.40;;
4895;SDS011;2463;49.948;8.472;2022-12-28T13:03:30;91.85;;;5.13;;
4895;SDS011;2463;49.948;8.472;2022-12-28T13:06:05;92.10;;;5.40;;
4895;SDS011;2463;49.948;8.472;2022-12-28T13:08:40;94.93;;;5.45;;
4895;SDS011;2463;49.948;8.472;2022-12-28T13:11:12;92.53;;;5.22;;
4895;SDS011;2463;49.948;8.472;2022-12-28T13:13:40;91.72;;;5.40;;
4895;SDS011;2463;49.948;8.472;2022-12-28T13:16:10;92.65;;;5.10;;
4895;SDS011;2463;49.948;8.472;2022-12-28T13:18:53;90.93;;;5.00;;
4895;SDS011;2463;49.948;8.472;2022-12-28T13:21:25;91.22;;;5.35;;
4895;SDS011;2463;49.948;8.472;2022-12-28T13:23:54;94.22;;;5.43;;
4895;SDS011;2463;49.948;8.472;2022-12-28T13:26:23;91.43;;;5.50;;
4895;SDS011;2463;49.948;8.472;2022-12-28T13:28:56;90.93;;;5.03;;
4895;SDS011;2463;49.948;8.472;2022-12-28T13:34:18;92.45;;;5.53;;
4895;SDS011;2463;49.948;8.472;2022-12-28T13:39:16;92.50;;;5.63;;
4895;SDS011;2463;49.948;8.472;2022-12-28T13:41:46;91.90;;;5.57;;
4895;SDS011;2463;49.948;8.472;2022-12-28T13:44:27;91.00;;;5.20;;
4895;SDS011;2463;49.948;8.472;2022-12-28T13:47:10;90.78;;;5.13;;
4895;SDS011;2463;49.948;8.472;2022-12-28T13:55:03;92.50;;;5.40;;
4895;SDS011;2463;49.948;8.472;2022-12-28T13:57:43;90.20;;;5.00;;
4895;SDS011;2463;49.948;8.472;2022-12-28T14:00:22;91.38;;;5.15;;
4895;SDS011;2463;49.948;8.472;2022-12-28T14:02:50;91.35;;;5.00;;
4895;SDS011;2463;49.948;8.472;2022-12-28T14:05:26;91.68;;;5.15;;
4895;SDS011;2463;49.948;8.472;2022-12-28T14:07:54;97.05;;;5.65;;
4895;SDS011;2463;49.948;8.472;2022-12-28T14:10:23;92.57;;;5.40;;
4895;SDS011;2463;49.948;8.472;2022-12-28T14:12:51;91.70;;;5.40;;
4895;SDS011;2463;49.948;8.472;2022-12-28T14:15:18;92.60;;;5.20;;
4895;SDS011;2463;49.948;8.472;2022-12-28T14:17:46;92.00;;;5.57;;
4895;SDS011;2463;49.948;8.472;2022-12-28T14:20:15;91.72;;;5.10;;
4895;SDS011;2463;49.948;8.472;2022-12-28T14:22:42;92.50;;;4.90;;
4895;SDS011;2463;49.948;8.472;2022-12-28T14:25:13;90.78;;;5.40;;
4895;SDS011;2463;49.948;8.472;2022-12-28T14:27:43;92.20;;;5.28;;
4895;SDS011;2463;49.948;8.472;2022-12-28T14:30:24;94.32;;;5.75;;
4895;SDS011;2463;49.948;8.472;2022-12-28T14:32:53;92.47;;;5.35;;
4895;SDS011;2463;49.948;8.472;2022-12-28T14:35:22;91.75;;;6.13;;
4895;SDS011;2463;49.948;8.472;2022-12-28T14:37:52;92.15;;;5.20;;
4895;SDS011;2463;49.948;8.472;2022-12-28T14:40:28;92.70;;;5.28;;
4895;SDS011;2463;49.948;8.472;2022-12-28T14:42:55;92.50;;;5.22;;
4895;SDS011;2463;49.948;8.472;2022-12-28T14:48:35;92.70;;;5.40;;
4895;SDS011;2463;49.948;8.472;2022-12-28T14:53:43;91.45;;;5.22;;
4895;SDS011;2463;49.948;8.472;2022-12-28T14:56:16;92.60;;;5.43;;
4895;SDS011;2463;49.948;8.472;2022-12-28T14:58:49;91.47;;;5.00;;
4895;SDS011;2463;49.948;8.472;2022-12-28T15:01:23;92.30;;;5.13;;
4895;SDS011;2463;49.948;8.472;2022-12-28T15:06:27;91.93;;;4.90;;
4895;SDS011;2463;49.948;8.472;2022-12-28T15:08:55;90.43;;;4.97;;
4895;SDS011;2463;49.948;8.472;2022-12-28T15:11:25;90.95;;;5.28;;
4895;SDS011;2463;49.948;8.472;2022-12-28T15:13:53;91.57;;;5.00;;
4895;SDS011;2463;49.948;8.472;2022-12-28T15:16:21;90.63;;;4.90;;
4895;SDS011;2463;49.948;8.472;2022-12-28T15:18:48;92.10;;;5.47;;
4895;SDS011;2463;49.948;8.472;2022-12-28T15:21:16;93.40;;;5.38;;
4895;SDS011;2463;49.948;8.472;2022-12-28T15:23:48;91.28;;;5.22;;
4895;SDS011;2463;49.948;8.472;2022-12-28T15:26:18;91.72;;;5.38;;
4895;SDS011;2463;49.948;8.472;2022-12-28T15:28:46;91.63;;;5.22;;
4895;SDS011;2463;49.948;8.472;2022-12-28T15:31:13;93.85;;;5.35;;
4895;SDS011;2463;49.948;8.472;2022-12-28T15:33:43;91.00;;;5.40;;
4895;SDS011;2463;49.948;8.472;2022-12-28T15:36:17;91.47;;;5.45;;
4895;SDS011;2463;49.948;8.472;2022-12-28T15:38:46;90.88;;;5.15;;
4895;SDS011;2463;49.948;8.472;2022-12-28T15:41:14;93.35;;;5.50;;
4895;SDS011;2463;49.948;8.472;2022-12-28T15:44:01;92.15;;;5.85;;
4895;SDS011;2463;49.948;8.472;2022-12-28T15:46:28;92.70;;;5.50;;
4895;SDS011;2463;49.948;8.472;2022-12-28T15:48:55;95.93;;;5.43;;
4895;SDS011;2463;49.948;8.472;2022-12-28T15:51:22;91.07;;;5.32;;
4895;SDS011;2463;49.948;8.472;2022-12-28T15:53:49;92.45;;;5.43;;
4895;SDS011;2463;49.948;8.472;2022-12-28T15:56:22;94.38;;;5.40;;
4895;SDS011;2463;49.948;8.472;2022-12-28T15:58:51;94.63;;;5.50;;
4895;SDS011;2463;49.948;8.472;2022-12-28T16:01:19;94.53;;;5.63;;
4895;SDS011;2463;49.948;8.472;2022-12-28T16:03:53;92.03;;;5.32;;
4895;SDS011;2463;49.948;8.472;2022-12-28T16:06:22;95.28;;;5.45;;
4895;SDS011;2463;49.948;8.472;2022-12-28T16:08:51;92.30;;;5.65;;
4895;SDS011;2463;49.948;8.472;2022-12-28T16:11:19;95.55;;;5.50;;
4895;SDS011;2463;49.948;8.472;2022-12-28T16:13:53;94.05;;;6.20;;
4895;SDS011;2463;49.948;8.472;2022-12-28T16:16:22;93.90;;;6.00;;
4895;SDS011;2463;49.948;8.472;2022-12-28T16:18:49;100.63;;;6.18;;
4895;SDS011;2463;49.948;8.472;2022-12-28T16:21:19;92.07;;;5.32;;
4895;SDS011;2463;49.948;8.472;2022-12-28T16:23:46;92.72;;;5.63;;
4895;SDS011;2463;49.948;8.472;2022-12-28T16:26:12;91.93;;;5.45;;
4895;SDS011;2463;49.948;8.472;2022-12-28T16:28:39;91.88;;;5.40;;
4895;SDS011;2463;49.948;8.472;2022-12-28T16:31:06;94.97;;;6.28;;
4895;SDS011;2463;49.948;8.472;2022-12-28T16:33:33;92.80;;;5.50;;
4895;SDS011;2463;49.948;8.472;2022-12-28T16:36:00;92.95;;;5.43;;
4895;SDS011;2463;49.948;8.472;2022-12-28T16:38:27;92.13;;;5.75;;
4895;SDS011;2463;49.948;8.472;2022-12-28T16:40:55;91.78;;;5.60;;
4895;SDS011;2463;49.948;8.472;2022-12-28T16:43:22;93.55;;;5.45;;
4895;SDS011;2463;49.948;8.472;2022-12-28T16:45:49;91.50;;;5.57;;
4895;SDS011;2463;49.948;8.472;2022-12-28T16:48:16;92.07;;;5.50;;
4895;SDS011;2463;49.948;8.472;2022-12-28T16:50:42;92.22;;;5.55;;
4895;SDS011;2463;49.948;8.472;2022-12-28T16:53:09;93.07;;;5.38;;
4895;SDS011;2463;49.948;8.472;2022-12-28T16:55:37;91.82;;;5.35;;
4895;SDS011;2463;49.948;8.472;2022-12-28T16:58:06;92.97;;;5.60;;
4895;SDS011;2463;49.948;8.472;2022-12-28T17:00:34;91.90;;;5.60;;
4895;SDS011;2463;49.948;8.472;2022-12-28T17:03:00;94.53;;;5.70;;